Time;durP1;ratioP1;P1;durP2;ratioP2;P2;SDS_P1;SDS_P2;PMS_P1;PMS_P2;Temp;Humidity;BMP_temperature;BMP_pressure;BME280_temperature;BME280_humidity;BME280_pressure;Samples;Min_cycle;Max_cycle;Signal;HPM_P1;HPM_P2
2024/01/09 00:00:18;;;;;;;0.95;0.80;;;18.60;28.00;;;;;;5007162;28;20037;-56
2024/01/09 00:02:43;;;;;;;0.80;0.60;;;18.50;28.00;;;;;;5001044;28;20026;-56
2024/01/09 00:05:09;;;;;;;1.02;0.75;;;18.60;28.00;;;;;;5003640;28;20049;-57
2024/01/09 00:07:35;;;;;;;1.20;0.80;;;18.60;28.00;;;;;;5007950;28;20057;-58
2024/01/09 00:10:01;;;;;;;1.52;0.80;;;18.60;28.00;;;;;;5004532;28;20109;-57
2024/01/09 00:12:26;;;;;;;1.83;0.82;;;18.60;28.00;;;;;;5002017;28;20050;-58
2024/01/09 00:14:52;;;;;;;0.95;0.65;;;18.50;28.00;;;;;;5001372;28;20426;-58
2024/01/09 00:17:18;;;;;;;1.10;0.75;;;18.50;28.00;;;;;;4999823;28;20704;-56
2024/01/09 00:19:44;;;;;;;1.52;0.75;;;18.50;28.00;;;;;;5008404;28;20118;-59
2024/01/09 00:22:09;;;;;;;1.00;0.90;;;18.50;28.00;;;;;;5005082;28;20026;-58
2024/01/09 00:24:35;;;;;;;1.63;0.90;;;18.50;28.00;;;;;;5002314;28;20045;-60
2024/01/09 00:27:01;;;;;;;1.17;0.88;;;18.50;28.00;;;;;;5000230;28;20026;-58
2024/01/09 00:29:27;;;;;;;1.35;0.80;;;18.50;28.00;;;;;;5009961;28;20029;-57
2024/01/09 00:31:52;;;;;;;1.38;0.80;;;18.50;28.00;;;;;;5005854;28;20457;-57
2024/01/09 00:34:18;;;;;;;1.38;0.70;;;18.50;28.00;;;;;;5006700;28;20018;-57
2024/01/09 00:36:44;;;;;;;1.23;0.85;;;18.50;28.00;;;;;;5009946;28;20040;-60
2024/01/09 00:39:11;;;;;;;0.70;0.60;;;18.50;28.00;;;;;;5007273;28;20109;-57
2024/01/09 00:41:37;;;;;;;1.40;0.85;;;18.50;28.00;;;;;;5000699;28;20376;-58
2024/01/09 00:44:03;;;;;;;1.67;0.90;;;18.50;27.90;;;;;;5011713;28;20030;-58
2024/01/09 00:46:29;;;;;;;1.15;0.82;;;18.50;27.90;;;;;;5005325;28;20480;-60
2024/01/09 00:48:55;;;;;;;0.63;0.52;;;18.50;27.90;;;;;;5006026;28;20030;-60
2024/01/09 00:51:20;;;;;;;0.70;0.50;;;18.40;27.90;;;;;;5002035;28;20022;-59
2024/01/09 00:53:46;;;;;;;0.85;0.65;;;18.40;27.90;;;;;;5012015;28;20025;-58
2024/01/09 00:56:12;;;;;;;1.30;0.77;;;18.40;27.90;;;;;;5010687;28;20405;-58
2024/01/09 00:58:38;;;;;;;0.90;0.70;;;18.40;27.80;;;;;;5008651;28;20381;-56
2024/01/09 01:01:04;;;;;;;1.00;0.80;;;18.40;27.80;;;;;;4986958;28;20333;-58
2024/01/09 01:03:30;;;;;;;0.82;0.73;;;18.40;27.80;;;;;;5009295;28;20428;-55
2024/01/09 01:05:56;;;;;;;1.13;0.68;;;18.40;27.80;;;;;;5003597;28;20050;-58
2024/01/09 01:08:21;;;;;;;1.25;0.90;;;18.40;27.80;;;;;;5004323;28;20491;-57
2024/01/09 01:10:48;;;;;;;0.75;0.65;;;18.40;27.80;;;;;;5011972;28;20026;-58
2024/01/09 01:13:14;;;;;;;0.70;0.60;;;18.40;27.70;;;;;;5002980;28;20042;-56
2024/01/09 01:15:40;;;;;;;0.90;0.77;;;18.40;27.70;;;;;;5004512;28;20347;-57
2024/01/09 01:18:06;;;;;;;1.70;1.00;;;18.40;27.70;;;;;;5000483;28;20037;-57
2024/01/09 01:20:31;;;;;;;1.20;0.90;;;18.40;27.70;;;;;;5004924;28;20027;-58
2024/01/09 01:22:57;;;;;;;1.30;0.88;;;18.40;27.70;;;;;;5002591;28;20464;-58
2024/01/09 01:25:23;;;;;;;1.38;0.70;;;18.40;27.70;;;;;;5007182;28;20453;-57
2024/01/09 01:27:49;;;;;;;0.88;0.80;;;18.40;27.70;;;;;;5007154;28;21725;-56
2024/01/09 01:30:14;;;;;;;1.40;0.98;;;18.40;27.70;;;;;;5006430;28;20105;-58
2024/01/09 01:32:40;;;;;;;0.90;0.70;;;18.30;27.60;;;;;;5008373;28;20033;-54
2024/01/09 01:35:06;;;;;;;1.05;0.80;;;18.30;27.60;;;;;;5006293;28;20092;-58
2024/01/09 01:37:32;;;;;;;1.85;0.93;;;18.30;27.60;;;;;;5001510;28;20053;-57
2024/01/09 01:39:58;;;;;;;0.75;0.70;;;18.30;27.60;;;;;;5004884;28;20231;-58
2024/01/09 01:42:23;;;;;;;1.08;0.77;;;18.30;27.60;;;;;;4999489;28;20030;-57
2024/01/09 01:44:49;;;;;;;1.50;0.90;;;18.30;27.60;;;;;;5006565;28;20036;-58
2024/01/09 01:47:15;;;;;;;1.00;0.80;;;18.30;27.60;;;;;;5004423;28;20057;-59
2024/01/09 01:49:42;;;;;;;0.95;0.70;;;18.30;27.60;;;;;;5000572;28;20350;-58
2024/01/09 01:52:08;;;;;;;0.75;0.57;;;18.30;27.60;;;;;;5002734;28;20019;-57
2024/01/09 01:54:37;;;;;;;1.10;0.65;;;18.30;27.60;;;;;;5007199;28;20037;-58
2024/01/09 01:57:05;;;;;;;1.10;0.88;;;18.30;27.60;;;;;;5003512;28;20468;-56
2024/01/09 01:59:32;;;;;;;1.10;0.60;;;18.30;27.60;;;;;;5002310;28;20118;-57
2024/01/09 02:01:59;;;;;;;0.95;0.73;;;18.30;27.60;;;;;;5003243;28;20034;-59
2024/01/09 02:04:26;;;;;;;1.00;0.80;;;18.30;27.60;;;;;;4999663;28;20417;-57
2024/01/09 02:06:52;;;;;;;1.10;0.68;;;18.30;27.50;;;;;;5006367;28;20030;-56
2024/01/09 02:09:18;;;;;;;1.00;0.80;;;18.30;27.50;;;;;;5010663;28;20026;-56
2024/01/09 02:11:46;;;;;;;1.55;0.88;;;18.30;27.50;;;;;;5009610;28;20412;-58
2024/01/09 02:14:12;;;;;;;1.02;0.80;;;18.20;27.50;;;;;;5004058;28;20026;-57
2024/01/09 02:16:38;;;;;;;1.05;0.75;;;18.20;27.50;;;;;;5003480;28;20049;-58
2024/01/09 02:19:04;;;;;;;1.02;0.70;;;18.20;27.50;;;;;;5002955;28;20109;-57
2024/01/09 02:21:29;;;;;;;0.93;0.80;;;18.20;27.50;;;;;;5005160;28;20026;-58
2024/01/09 02:23:55;;;;;;;0.90;0.70;;;18.20;27.50;;;;;;5005536;28;20030;-58
2024/01/09 02:26:29;;;;;;;0.65;0.63;;;18.20;27.50;;;;;;5005023;28;20099;-58
2024/01/09 02:28:59;;;;;;;1.00;0.75;;;18.20;27.50;;;;;;5002152;28;20036;-57
2024/01/09 02:31:25;;;;;;;1.13;0.73;;;18.20;27.50;;;;;;5003441;28;20045;-58
2024/01/09 02:33:52;;;;;;;1.25;0.88;;;18.20;27.50;;;;;;5005948;28;20030;-58
2024/01/09 02:36:17;;;;;;;0.88;0.70;;;18.20;27.50;;;;;;5006342;28;20079;-58
2024/01/09 02:38:44;;;;;;;1.17;0.90;;;18.20;27.50;;;;;;5000433;28;20038;-58
2024/01/09 02:41:09;;;;;;;0.88;0.75;;;18.20;27.50;;;;;;5002998;28;20878;-57
2024/01/09 02:43:35;;;;;;;2.25;1.02;;;18.20;27.60;;;;;;4999009;28;20045;-56
2024/01/09 02:46:01;;;;;;;1.13;0.80;;;18.20;27.50;;;;;;5002470;28;20026;-58
2024/01/09 02:48:27;;;;;;;0.80;0.57;;;18.20;27.50;;;;;;5001893;28;20049;-56
2024/01/09 02:50:52;;;;;;;1.10;0.80;;;18.20;27.50;;;;;;5000230;28;20461;-58
2024/01/09 02:53:18;;;;;;;1.13;0.90;;;18.10;27.50;;;;;;5002314;28;20033;-56
2024/01/09 02:55:44;;;;;;;0.93;0.70;;;18.10;27.50;;;;;;5001781;28;20124;-58
2024/01/09 02:58:10;;;;;;;0.80;0.73;;;18.10;27.50;;;;;;5004156;28;20042;-57
2024/01/09 03:00:35;;;;;;;0.60;0.60;;;18.10;27.50;;;;;;5002197;28;20019;-55
2024/01/09 03:03:01;;;;;;;1.38;0.77;;;18.10;27.50;;;;;;5000043;28;20394;-59
2024/01/09 03:05:27;;;;;;;1.20;0.85;;;18.10;27.50;;;;;;5007567;28;20025;-57
2024/01/09 03:07:53;;;;;;;1.17;0.77;;;18.10;27.50;;;;;;5001515;28;20362;-58
2024/01/09 03:10:18;;;;;;;1.00;0.77;;;18.10;27.50;;;;;;5000533;28;20187;-58
2024/01/09 03:12:44;;;;;;;1.42;0.90;;;18.10;27.50;;;;;;4998339;28;20385;-59
2024/01/09 03:15:10;;;;;;;1.33;0.88;;;18.10;27.50;;;;;;5004088;28;20023;-57
2024/01/09 03:17:36;;;;;;;1.20;0.80;;;18.10;27.50;;;;;;5004239;28;20134;-59
2024/01/09 03:20:03;;;;;;;1.70;0.80;;;18.10;27.50;;;;;;5005526;28;20326;-56
2024/01/09 03:22:28;;;;;;;0.90;0.70;;;18.10;27.50;;;;;;5002119;28;20026;-53
2024/01/09 03:24:54;;;;;;;0.75;0.68;;;18.10;27.50;;;;;;5003223;28;20044;-58
2024/01/09 03:27:20;;;;;;;1.20;0.80;;;18.10;27.50;;;;;;5001316;28;20434;-59
2024/01/09 03:29:46;;;;;;;0.90;0.80;;;18.10;27.50;;;;;;5005122;28;20030;-56
2024/01/09 03:32:12;;;;;;;0.95;0.82;;;18.10;27.50;;;;;;5003178;28;20038;-57
2024/01/09 03:34:39;;;;;;;0.82;0.70;;;18.10;27.40;;;;;;5004877;28;21328;-59
2024/01/09 03:37:07;;;;;;;1.20;0.85;;;18.10;27.40;;;;;;4995582;28;20038;-58
2024/01/09 03:39:33;;;;;;;1.38;0.80;;;18.10;27.40;;;;;;5003584;28;20054;-58
2024/01/09 03:41:59;;;;;;;1.38;0.70;;;18.10;27.40;;;;;;5003617;28;20023;-58
2024/01/09 03:44:25;;;;;;;0.95;0.70;;;18.00;27.40;;;;;;5003122;28;20030;-57
2024/01/09 03:46:50;;;;;;;1.52;1.08;;;18.00;27.30;;;;;;5004490;28;20092;-58
2024/01/09 03:49:16;;;;;;;0.90;0.80;;;18.10;27.40;;;;;;5004907;28;20101;-57
2024/01/09 03:51:42;;;;;;;1.65;0.73;;;18.10;27.30;;;;;;5001294;28;20050;-57
2024/01/09 03:54:08;;;;;;;1.10;0.88;;;18.00;27.30;;;;;;5002679;28;20121;-56
2024/01/09 03:56:34;;;;;;;1.33;0.80;;;18.00;27.30;;;;;;5006355;28;20418;-57
2024/01/09 03:59:00;;;;;;;1.08;0.80;;;18.00;27.20;;;;;;5002963;28;20032;-56
2024/01/09 04:01:25;;;;;;;0.85;0.77;;;18.00;27.20;;;;;;5001823;28;20042;-58
2024/01/09 04:03:51;;;;;;;0.90;0.70;;;18.00;27.20;;;;;;5002644;28;20068;-58
2024/01/09 04:06:17;;;;;;;1.25;0.88;;;18.00;27.20;;;;;;4995007;28;20054;-57
2024/01/09 04:08:43;;;;;;;1.15;0.80;;;18.00;27.20;;;;;;5001887;28;20030;-57
2024/01/09 04:11:08;;;;;;;1.02;0.80;;;18.00;27.20;;;;;;4999711;28;20058;-60
2024/01/09 04:13:34;;;;;;;1.05;0.85;;;18.00;27.20;;;;;;5003301;28;20481;-58
2024/01/09 04:16:00;;;;;;;1.75;0.98;;;18.00;27.20;;;;;;5004164;28;20495;-60
2024/01/09 04:18:25;;;;;;;1.42;1.00;;;18.00;27.20;;;;;;5000525;28;20033;-58
2024/01/09 04:20:51;;;;;;;1.23;0.70;;;18.00;27.20;;;;;;5004535;28;20109;-55
2024/01/09 04:23:17;;;;;;;2.08;1.00;;;18.00;27.20;;;;;;5002948;28;20456;-57
2024/01/09 04:25:43;;;;;;;1.02;0.80;;;18.00;27.20;;;;;;5004035;28;20421;-57
2024/01/09 04:28:09;;;;;;;1.40;0.93;;;18.00;27.10;;;;;;5002989;28;20401;-59
2024/01/09 04:30:34;;;;;;;1.60;0.90;;;18.00;27.10;;;;;;5004343;28;20030;-58
2024/01/09 04:33:00;;;;;;;1.48;0.80;;;18.00;27.10;;;;;;5003758;28;20025;-59
2024/01/09 04:35:26;;;;;;;1.00;0.77;;;18.00;27.10;;;;;;5001448;28;20421;-60
2024/01/09 04:37:52;;;;;;;0.60;0.60;;;18.00;27.10;;;;;;5002483;28;20048;-60
2024/01/09 04:40:17;;;;;;;0.98;0.70;;;18.00;27.10;;;;;;5003564;28;20033;-59
2024/01/09 04:42:43;;;;;;;1.08;0.85;;;18.00;27.10;;;;;;5003168;28;20033;-56
2024/01/09 04:45:09;;;;;;;1.52;0.82;;;18.00;27.10;;;;;;5002703;28;20046;-57
2024/01/09 04:47:35;;;;;;;1.00;0.70;;;18.00;27.00;;;;;;4999951;28;20034;-58
2024/01/09 04:50:01;;;;;;;2.08;0.90;;;18.00;27.00;;;;;;5003585;28;20096;-60
2024/01/09 04:52:27;;;;;;;1.02;0.93;;;18.00;27.00;;;;;;5005251;28;20449;-59
2024/01/09 04:54:52;;;;;;;1.25;0.90;;;18.00;27.00;;;;;;5002900;28;20057;-55
2024/01/09 04:57:18;;;;;;;1.42;0.98;;;18.00;27.00;;;;;;5004167;28;20041;-59
2024/01/09 04:59:44;;;;;;;1.23;0.90;;;18.00;27.00;;;;;;5007480;28;20036;-59
2024/01/09 05:02:10;;;;;;;1.33;0.90;;;18.00;26.90;;;;;;5007582;28;20105;-58
2024/01/09 05:04:35;;;;;;;1.85;0.70;;;18.00;26.90;;;;;;5005081;28;20030;-59
2024/01/09 05:07:01;;;;;;;1.27;0.90;;;18.00;26.90;;;;;;5008551;28;20030;-58
2024/01/09 05:09:27;;;;;;;1.45;0.93;;;18.00;26.90;;;;;;5004617;28;20123;-57
2024/01/09 05:11:53;;;;;;;1.65;0.93;;;18.00;26.90;;;;;;5009112;28;20026;-59
2024/01/09 05:14:19;;;;;;;1.85;1.00;;;18.00;26.90;;;;;;5008704;28;20030;-57
2024/01/09 05:16:45;;;;;;;1.00;0.60;;;18.00;26.80;;;;;;5003808;28;20030;-55
2024/01/09 05:19:11;;;;;;;1.45;1.10;;;18.00;26.80;;;;;;5006132;28;20038;-59
2024/01/09 05:21:36;;;;;;;1.33;0.95;;;18.00;26.80;;;;;;5000335;28;20122;-54
2024/01/09 05:24:02;;;;;;;0.80;0.70;;;18.00;26.80;;;;;;5003665;28;20053;-56
2024/01/09 05:26:28;;;;;;;1.42;1.08;;;18.00;26.80;;;;;;5004628;28;20022;-60
2024/01/09 05:28:54;;;;;;;1.67;0.90;;;18.00;26.80;;;;;;5006963;28;21161;-58
2024/01/09 05:31:20;;;;;;;1.45;1.05;;;18.00;26.80;;;;;;5008102;28;20026;-59
2024/01/09 05:33:47;;;;;;;1.30;1.05;;;18.00;26.80;;;;;;5007588;28;20030;-58
2024/01/09 05:36:18;;;;;;;1.23;1.00;;;18.00;26.80;;;;;;5002526;28;20053;-61
2024/01/09 05:38:44;;;;;;;1.17;0.80;;;18.00;26.80;;;;;;5003899;28;20050;-60
2024/01/09 05:41:17;;;;;;;1.30;1.02;;;18.00;26.80;;;;;;5001439;28;20030;-59
2024/01/09 05:43:43;;;;;;;1.37;0.93;;;18.00;27.20;;;;;;5004098;28;20030;-59
2024/01/09 05:46:09;;;;;;;1.23;1.00;;;18.00;26.70;;;;;;5007165;28;20114;-58
2024/01/09 05:48:35;;;;;;;1.10;0.77;;;18.00;26.70;;;;;;5002001;28;20037;-57
2024/01/09 05:51:00;;;;;;;1.70;0.98;;;18.00;26.70;;;;;;5007318;28;20034;-59
2024/01/09 05:53:26;;;;;;;1.38;1.10;;;18.00;26.70;;;;;;5008598;28;20424;-60
2024/01/09 05:55:52;;;;;;;1.27;1.08;;;18.00;26.70;;;;;;5004565;28;20037;-61
2024/01/09 05:58:18;;;;;;;1.30;0.77;;;18.00;26.70;;;;;;5005607;28;20044;-57
2024/01/09 06:00:43;;;;;;;1.13;0.93;;;18.00;26.70;;;;;;5004155;28;20445;-59
2024/01/09 06:03:09;;;;;;;1.30;0.93;;;18.00;26.60;;;;;;5003963;28;20034;-58
2024/01/09 06:05:35;;;;;;;1.83;1.00;;;18.00;26.60;;;;;;5003268;28;20026;-59
2024/01/09 06:08:01;;;;;;;1.38;1.02;;;18.00;26.60;;;;;;5004850;28;20069;-58
2024/01/09 06:10:27;;;;;;;1.70;1.00;;;18.00;26.60;;;;;;5006032;28;20034;-59
2024/01/09 06:12:52;;;;;;;1.30;0.90;;;18.00;26.60;;;;;;5006630;28;20467;-59
2024/01/09 06:15:18;;;;;;;1.40;1.10;;;18.00;26.60;;;;;;5005301;28;20034;-58
2024/01/09 06:17:44;;;;;;;1.10;0.90;;;18.00;26.60;;;;;;5002072;28;20041;-58
2024/01/09 06:20:10;;;;;;;1.33;1.00;;;18.00;26.60;;;;;;5001598;28;20094;-57
2024/01/09 06:22:36;;;;;;;1.98;1.20;;;18.00;26.60;;;;;;5005498;28;20030;-56
2024/01/09 06:25:02;;;;;;;1.38;0.93;;;18.00;26.70;;;;;;5006132;28;20017;-58
2024/01/09 06:27:27;;;;;;;1.33;0.98;;;18.00;26.70;;;;;;5008240;28;21548;-60
2024/01/09 06:29:53;;;;;;;0.98;0.82;;;18.00;26.60;;;;;;4995911;28;20116;-57
2024/01/09 06:32:19;;;;;;;1.55;1.13;;;18.00;26.70;;;;;;5001190;28;20033;-58
2024/01/09 06:34:45;;;;;;;1.10;0.98;;;18.00;26.70;;;;;;5003880;28;20109;-58
2024/01/09 06:37:11;;;;;;;1.23;0.93;;;18.00;26.70;;;;;;5004189;28;20125;-58
2024/01/09 06:39:37;;;;;;;2.05;1.20;;;18.00;26.80;;;;;;5000993;28;20037;-58
2024/01/09 06:42:03;;;;;;;1.58;0.90;;;18.00;26.80;;;;;;5004088;28;20034;-59
2024/01/09 06:44:29;;;;;;;1.00;0.82;;;18.00;26.80;;;;;;5008372;28;20018;-60
2024/01/09 06:46:54;;;;;;;1.00;0.80;;;18.00;26.80;;;;;;5003313;28;20030;-57
2024/01/09 06:49:20;;;;;;;1.45;0.90;;;18.00;26.70;;;;;;5004616;28;20076;-58
2024/01/09 06:51:46;;;;;;;1.30;1.00;;;18.00;26.70;;;;;;5005323;28;20068;-57
2024/01/09 06:54:12;;;;;;;1.35;1.00;;;18.00;26.70;;;;;;5005162;28;20037;-58
2024/01/09 06:56:43;;;;;;;1.45;0.98;;;18.00;26.70;;;;;;5005568;28;20032;-60
2024/01/09 06:59:10;;;;;;;1.70;1.20;;;18.00;26.70;;;;;;5001110;28;20418;-58
2024/01/09 07:01:35;;;;;;;1.73;1.17;;;18.00;26.70;;;;;;5001188;28;20101;-59
2024/01/09 07:04:01;;;;;;;1.25;0.90;;;18.00;26.60;;;;;;5001049;28;20113;-59
2024/01/09 07:06:27;;;;;;;1.20;1.00;;;18.00;26.60;;;;;;5003513;28;20058;-58
2024/01/09 07:08:53;;;;;;;1.30;1.00;;;18.00;26.60;;;;;;4998825;28;20046;-59
2024/01/09 07:11:19;;;;;;;1.33;0.98;;;18.00;26.60;;;;;;5005592;28;20022;-59
2024/01/09 07:13:44;;;;;;;1.10;0.85;;;18.00;26.60;;;;;;5002078;28;20042;-58
2024/01/09 07:16:10;;;;;;;1.48;1.10;;;18.00;26.60;;;;;;5002379;28;20445;-58
2024/01/09 07:18:36;;;;;;;1.75;1.10;;;18.00;26.60;;;;;;4999931;28;20464;-58
2024/01/09 07:21:02;;;;;;;1.00;0.90;;;18.00;26.60;;;;;;5002656;28;20030;-58
2024/01/09 07:23:28;;;;;;;2.22;1.30;;;18.00;26.60;;;;;;5003054;28;20030;-58
2024/01/09 07:25:54;;;;;;;1.60;1.23;;;18.00;26.60;;;;;;5003643;28;20405;-55
2024/01/09 07:28:20;;;;;;;1.40;0.90;;;18.00;26.60;;;;;;5005548;28;20022;-58
2024/01/09 07:30:46;;;;;;;1.80;1.00;;;17.90;26.60;;;;;;5003767;28;20022;-56
2024/01/09 07:33:12;;;;;;;1.38;0.98;;;17.90;26.50;;;;;;5001392;28;20057;-59
2024/01/09 07:35:37;;;;;;;3.22;1.02;;;17.90;26.50;;;;;;5004778;28;20041;-58
2024/01/09 07:38:04;;;;;;;1.80;1.02;;;17.90;26.50;;;;;;5000150;28;20041;-58
2024/01/09 07:40:30;;;;;;;1.95;1.40;;;17.90;26.50;;;;;;5003537;28;20025;-59
2024/01/09 07:42:58;;;;;;;1.42;1.00;;;17.90;26.50;;;;;;5003954;28;20361;-54
2024/01/09 07:45:29;;;;;;;2.05;1.10;;;17.90;26.50;;;;;;5001854;28;20029;-59
2024/01/09 07:47:55;;;;;;;1.50;1.00;;;17.90;26.50;;;;;;4997397;28;20034;-59
2024/01/09 07:50:21;;;;;;;1.58;1.10;;;18.00;26.40;;;;;;5004559;28;20029;-56
2024/01/09 07:52:47;;;;;;;1.33;1.13;;;18.00;26.30;;;;;;5004387;28;20030;-58
2024/01/09 07:55:13;;;;;;;1.55;1.05;;;18.00;26.30;;;;;;4998699;28;20465;-56
2024/01/09 07:57:39;;;;;;;1.42;1.00;;;18.00;26.30;;;;;;5001960;28;20046;-56
2024/01/09 08:00:05;;;;;;;1.88;1.00;;;18.00;26.30;;;;;;5003374;28;20026;-59
2024/01/09 08:02:37;;;;;;;2.08;1.30;;;18.00;26.30;;;;;;4997724;28;20026;-59
2024/01/09 08:05:03;;;;;;;1.58;1.05;;;18.00;26.20;;;;;;4994737;28;20478;-61
2024/01/09 08:07:30;;;;;;;1.98;1.40;;;18.00;26.20;;;;;;4996668;28;20791;-57
2024/01/09 08:09:55;;;;;;;1.80;1.10;;;18.10;26.20;;;;;;4997242;28;20140;-57
2024/01/09 08:12:21;;;;;;;1.73;1.10;;;18.10;26.20;;;;;;5002947;28;20457;-58
2024/01/09 08:14:49;;;;;;;2.38;1.20;;;18.20;26.20;;;;;;4998221;28;20065;-58
2024/01/09 08:17:14;;;;;;;2.40;1.40;;;18.20;26.10;;;;;;4998236;28;20118;-57
2024/01/09 08:19:40;;;;;;;1.77;1.35;;;18.30;26.10;;;;;;4998532;28;20407;-59
2024/01/09 08:22:06;;;;;;;2.08;1.30;;;18.30;26.00;;;;;;5003192;28;20026;-57
2024/01/09 08:24:32;;;;;;;2.05;1.30;;;18.40;26.00;;;;;;4998281;28;20414;-60
2024/01/09 08:26:58;;;;;;;1.80;1.33;;;18.50;26.00;;;;;;5008414;28;20125;-58
2024/01/09 08:29:27;;;;;;;2.00;1.38;;;18.60;26.00;;;;;;5003826;28;20101;-58
2024/01/09 08:31:53;;;;;;;1.40;1.30;;;18.60;25.90;;;;;;5010051;28;20118;-59
2024/01/09 08:34:19;;;;;;;2.25;1.20;;;18.70;25.90;;;;;;5005171;28;20034;-57
2024/01/09 08:36:46;;;;;;;1.60;1.13;;;18.80;25.90;;;;;;4998600;28;20061;-58
2024/01/09 08:39:15;;;;;;;1.63;1.20;;;18.80;25.80;;;;;;5001589;28;20037;-60
2024/01/09 08:41:41;;;;;;;1.88;1.30;;;18.90;25.80;;;;;;4998007;28;20534;-58
2024/01/09 08:44:10;;;;;;;2.03;1.42;;;19.00;25.80;;;;;;5006107;28;20052;-60
2024/01/09 08:46:42;;;;;;;1.88;1.20;;;19.10;25.80;;;;;;5005229;28;20473;-59
2024/01/09 08:49:08;;;;;;;2.05;1.27;;;19.10;25.70;;;;;;5009662;28;20707;-58
2024/01/09 08:51:35;;;;;;;1.90;1.13;;;19.20;25.70;;;;;;5002428;28;20354;-60
2024/01/09 08:54:01;;;;;;;2.75;1.63;;;19.30;25.70;;;;;;4998113;28;20062;-59
2024/01/09 08:56:27;;;;;;;1.92;1.30;;;19.30;25.70;;;;;;5008960;28;20172;-59
2024/01/09 08:58:52;;;;;;;1.55;1.20;;;19.40;25.60;;;;;;5008503;28;20112;-58
2024/01/09 09:01:20;;;;;;;1.23;0.90;;;19.40;25.60;;;;;;5005462;28;20049;-60
2024/01/09 09:03:46;;;;;;;1.85;1.13;;;19.50;25.60;;;;;;5001924;28;20026;-59
2024/01/09 09:06:12;;;;;;;1.20;0.90;;;19.50;25.50;;;;;;5002015;28;20465;-59
2024/01/09 09:08:39;;;;;;;1.30;1.10;;;19.60;25.50;;;;;;5008341;28;20057;-60
2024/01/09 09:11:07;;;;;;;1.45;1.10;;;19.60;25.50;;;;;;5002924;28;20436;-60
2024/01/09 09:13:32;;;;;;;1.67;1.15;;;19.70;25.40;;;;;;5001502;28;20042;-60
2024/01/09 09:15:59;;;;;;;1.52;1.05;;;19.70;25.40;;;;;;5003430;28;20037;-62
2024/01/09 09:18:25;;;;;;;1.23;1.02;;;19.80;25.40;;;;;;5006653;28;20084;-59
2024/01/09 09:20:51;;;;;;;1.55;1.20;;;19.80;25.30;;;;;;4998151;28;20053;-58
2024/01/09 09:23:17;;;;;;;1.85;1.20;;;19.90;25.30;;;;;;4998207;28;20109;-60
2024/01/09 09:25:42;;;;;;;1.63;1.10;;;19.90;25.30;;;;;;4995135;28;20022;-60
2024/01/09 09:28:08;;;;;;;1.70;1.23;;;19.90;25.20;;;;;;4996018;28;20061;-60
2024/01/09 09:30:34;;;;;;;1.98;1.40;;;20.00;25.10;;;;;;4998452;28;20046;-60
2024/01/09 09:33:00;;;;;;;1.20;1.00;;;20.00;25.10;;;;;;5011014;28;20771;-59
2024/01/09 09:35:26;;;;;;;1.35;0.90;;;20.10;25.00;;;;;;5001582;28;20030;-59
2024/01/09 09:37:51;;;;;;;1.30;0.93;;;20.10;25.00;;;;;;4997226;28;20374;-57
2024/01/09 09:40:18;;;;;;;1.23;1.02;;;20.10;25.00;;;;;;4999076;28;20354;-56
2024/01/09 09:42:51;;;;;;;1.40;1.00;;;20.10;24.90;;;;;;4997491;28;20031;-59
2024/01/09 09:45:19;;;;;;;1.85;1.30;;;20.10;24.80;;;;;;4998126;28;20030;-58
2024/01/09 09:47:48;;;;;;;1.48;1.05;;;20.10;24.80;;;;;;5009134;28;20026;-59
2024/01/09 09:50:14;;;;;;;1.35;1.20;;;20.10;24.80;;;;;;5001314;28;20034;-60
2024/01/09 09:52:42;;;;;;;1.48;1.10;;;20.10;24.70;;;;;;4998864;28;20034;-58
2024/01/09 09:55:10;;;;;;;1.60;1.30;;;20.10;24.70;;;;;;4998067;28;20037;-58
2024/01/09 09:57:37;;;;;;;1.73;1.10;;;20.10;24.60;;;;;;5011721;28;20054;-59
2024/01/09 10:00:09;;;;;;;1.55;1.23;;;20.00;24.60;;;;;;5011471;28;20302;-57
2024/01/09 10:02:43;;;;;;;1.67;1.30;;;20.00;24.60;;;;;;5003636;28;20053;-60
2024/01/09 10:05:18;;;;;;;1.73;1.33;;;20.00;24.50;;;;;;4995955;28;20034;-57
2024/01/09 10:07:51;;;;;;;1.70;1.30;;;20.00;24.50;;;;;;5005907;28;20825;-59
2024/01/09 10:10:17;;;;;;;1.25;1.02;;;19.90;24.40;;;;;;5003695;28;20041;-59
2024/01/09 10:12:44;;;;;;;1.58;1.20;;;19.90;24.40;;;;;;5006058;28;20468;-58
2024/01/09 10:15:12;;;;;;;2.22;1.30;;;19.90;24.40;;;;;;5009039;28;20105;-60
2024/01/09 10:17:42;;;;;;;1.90;1.17;;;19.90;24.30;;;;;;5003122;28;20085;-59
2024/01/09 10:20:12;;;;;;;1.38;1.00;;;19.90;24.30;;;;;;5000451;28;20022;-57
2024/01/09 10:22:39;;;;;;;1.88;1.40;;;19.90;24.30;;;;;;5011188;28;20022;-59
2024/01/09 10:25:07;;;;;;;2.00;1.20;;;19.80;24.30;;;;;;5006483;28;20481;-56
2024/01/09 10:27:37;;;;;;;1.80;1.40;;;19.80;24.30;;;;;;5005136;28;20104;-61
2024/01/09 10:30:08;;;;;;;1.95;1.30;;;19.80;24.30;;;;;;5002981;28;20032;-58
2024/01/09 10:32:35;;;;;;;2.25;1.23;;;19.80;24.30;;;;;;5001420;28;20041;-56
2024/01/09 10:35:05;;;;;;;1.55;1.10;;;19.80;24.30;;;;;;4995152;28;20385;-58
2024/01/09 10:37:33;;;;;;;1.45;1.17;;;19.70;24.30;;;;;;5003459;28;20050;-57
2024/01/09 10:39:59;;;;;;;1.92;1.35;;;19.70;24.80;;;;;;4994164;28;20105;-58
2024/01/09 10:42:25;;;;;;;1.75;1.17;;;19.70;24.30;;;;;;4998330;28;20076;-58
2024/01/09 10:44:51;;;;;;;1.65;1.23;;;19.70;24.30;;;;;;4995988;28;20045;-59
2024/01/09 10:47:20;;;;;;;2.10;1.33;;;19.60;24.20;;;;;;4997686;28;20018;-58
2024/01/09 10:49:46;;;;;;;1.52;1.27;;;19.60;24.20;;;;;;5005063;28;20030;-58
2024/01/09 10:52:16;;;;;;;1.83;1.23;;;19.60;24.30;;;;;;5010815;28;20040;-58
2024/01/09 10:54:46;;;;;;;1.33;1.17;;;19.60;24.20;;;;;;4997298;28;20313;-58
2024/01/09 10:57:16;;;;;;;1.85;1.23;;;19.60;24.20;;;;;;5002679;28;20489;-58
2024/01/09 10:59:46;;;;;;;1.08;0.90;;;19.50;24.20;;;;;;4998166;28;20409;-58
2024/01/09 11:02:16;;;;;;;1.20;1.00;;;19.50;24.20;;;;;;4998266;28;20038;-58
2024/01/09 11:04:43;;;;;;;1.67;1.02;;;19.50;24.20;;;;;;4999277;28;20100;-62
2024/01/09 11:07:16;;;;;;;1.50;0.98;;;19.50;24.20;;;;;;4998455;28;20031;-59
2024/01/09 11:09:47;;;;;;;1.92;1.20;;;19.50;24.10;;;;;;5001147;28;20026;-58
2024/01/09 11:12:30;;;;;;;2.45;1.30;;;19.50;24.10;;;;;;4999926;28;20026;-60
2024/01/09 11:15:09;;;;;;;1.33;0.98;;;19.50;24.10;;;;;;4999414;28;20057;-59
2024/01/09 11:17:37;;;;;;;1.13;0.95;;;19.40;24.10;;;;;;5004852;28;20092;-59
2024/01/09 11:20:08;;;;;;;1.58;1.20;;;19.40;24.10;;;;;;5002232;28;20034;-60
2024/01/09 11:22:36;;;;;;;1.58;1.00;;;19.40;24.10;;;;;;4996885;28;20030;-59
2024/01/09 11:25:12;;;;;;;1.30;0.90;;;19.40;24.00;;;;;;5002571;28;20041;-59
2024/01/09 11:27:42;;;;;;;2.17;1.20;;;19.40;24.10;;;;;;5001414;28;20025;-60
2024/01/09 11:30:14;;;;;;;1.60;1.15;;;19.40;24.10;;;;;;5004253;28;20035;-57
2024/01/09 11:32:40;;;;;;;1.55;1.20;;;19.40;24.10;;;;;;5003302;28;20037;-60
2024/01/09 11:35:16;;;;;;;1.10;0.90;;;19.30;24.10;;;;;;5005112;28;20026;-58
2024/01/09 11:37:48;;;;;;;1.73;1.10;;;19.30;24.30;;;;;;5002656;28;20042;-59
2024/01/09 11:40:24;;;;;;;1.65;0.93;;;19.30;24.50;;;;;;4999704;28;20038;-60
2024/01/09 11:42:51;;;;;;;1.50;0.98;;;19.30;24.90;;;;;;5003822;28;20026;-58
2024/01/09 11:45:25;;;;;;;1.25;0.82;;;19.30;25.20;;;;;;5006395;28;20057;-58
2024/01/09 11:47:53;;;;;;;1.60;1.05;;;19.30;25.40;;;;;;5001474;28;20030;-57
2024/01/09 11:50:20;;;;;;;1.50;0.95;;;19.40;25.60;;;;;;5004670;28;20030;-59
2024/01/09 11:52:48;;;;;;;1.80;1.23;;;19.40;25.80;;;;;;5000415;28;20030;-57
2024/01/09 11:55:14;;;;;;;1.25;0.80;;;19.40;26.00;;;;;;4975813;28;20027;-56
2024/01/09 11:57:42;;;;;;;1.63;0.82;;;19.40;26.10;;;;;;4982854;28;20125;-58
2024/01/09 12:00:09;;;;;;;1.38;0.98;;;19.40;26.30;;;;;;4989830;28;20438;-55
2024/01/09 12:02:36;;;;;;;1.45;0.80;;;19.50;26.50;;;;;;4984429;28;20398;-57
2024/01/09 12:05:04;;;;;;;1.45;1.02;;;19.50;26.60;;;;;;4991435;28;20102;-60
2024/01/09 12:07:33;;;;;;;2.35;1.15;;;19.60;26.80;;;;;;4990294;28;20105;-59
2024/01/09 12:10:04;;;;;;;2.55;0.77;;;19.60;26.90;;;;;;4992415;28;20030;-55
2024/01/09 12:12:29;;;;;;;1.38;0.90;;;19.70;27.00;;;;;;4992100;28;20050;-56
2024/01/09 12:14:57;;;;;;;1.48;1.10;;;19.70;27.00;;;;;;4995677;28;20030;-55
2024/01/09 12:17:34;;;;;;;1.88;1.20;;;19.80;26.80;;;;;;4992176;28;20034;-53
2024/01/09 12:20:02;;;;;;;2.08;0.95;;;19.80;26.60;;;;;;4994596;28;20337;-54
2024/01/09 12:22:31;;;;;;;1.48;1.00;;;19.80;26.50;;;;;;4987839;28;20042;-56
2024/01/09 12:24:58;;;;;;;2.25;0.90;;;19.80;26.50;;;;;;4987272;28;20026;-56
2024/01/09 12:27:25;;;;;;;1.83;1.10;;;19.90;26.80;;;;;;5007862;28;20369;-56
2024/01/09 12:29:51;;;;;;;3.40;1.00;;;19.90;26.90;;;;;;4987469;28;20454;-57
2024/01/09 12:32:18;;;;;;;1.25;0.80;;;19.90;27.10;;;;;;4987147;28;20041;-57
2024/01/09 12:34:45;;;;;;;3.28;0.85;;;19.90;27.30;;;;;;4985711;28;20026;-58
2024/01/09 12:37:11;;;;;;;3.50;0.85;;;20.00;27.60;;;;;;4993538;28;20066;-55
2024/01/09 12:39:39;;;;;;;1.35;0.88;;;20.00;27.70;;;;;;5004970;28;20393;-54
2024/01/09 12:42:12;;;;;;;1.20;0.73;;;20.00;27.90;;;;;;5002572;28;20037;-52
2024/01/09 12:44:41;;;;;;;1.13;0.80;;;20.00;27.90;;;;;;5000093;28;20030;-54